sensor_id;sensor_type;location;lat;lon;timestamp;P1;durP1;ratioP1;P2;durP2;ratioP2
22949;SDS011;11641;51.018;4.474;2022-07-22T00:00:10;13.32;;;2.90;;
22949;SDS011;11641;51.018;4.474;2022-07-22T00:02:36;13.23;;;3.88;;
22949;SDS011;11641;51.018;4.474;2022-07-22T00:05:02;19.42;;;3.28;;
22949;SDS011;11641;51.018;4.474;2022-07-22T00:07:31;12.65;;;2.80;;
22949;SDS011;11641;51.018;4.474;2022-07-22T00:09:57;9.45;;;2.78;;
22949;SDS011;11641;51.018;4.474;2022-07-22T00:12:23;15.73;;;3.20;;
22949;SDS011;11641;51.018;4.474;2022-07-22T00:14:50;16.88;;;3.55;;
22949;SDS011;11641;51.018;4.474;2022-07-22T00:17:16;14.40;;;2.83;;
22949;SDS011;11641;51.018;4.474;2022-07-22T00:19:42;10.65;;;2.40;;
22949;SDS011;11641;51.018;4.474;2022-07-22T00:22:07;14.38;;;2.78;;
22949;SDS011;11641;51.018;4.474;2022-07-22T00:24:38;13.23;;;2.65;;
22949;SDS011;11641;51.018;4.474;2022-07-22T00:27:05;15.25;;;3.30;;
22949;SDS011;11641;51.018;4.474;2022-07-22T00:29:30;11.85;;;2.40;;
22949;SDS011;11641;51.018;4.474;2022-07-22T00:31:56;12.98;;;2.50;;
22949;SDS011;11641;51.018;4.474;2022-07-22T00:34:22;14.77;;;2.80;;
22949;SDS011;11641;51.018;4.474;2022-07-22T00:36:48;13.20;;;3.10;;
22949;SDS011;11641;51.018;4.474;2022-07-22T00:39:15;7.72;;;2.72;;
22949;SDS011;11641;51.018;4.474;2022-07-22T00:41:41;10.93;;;2.45;;
22949;SDS011;11641;51.018;4.474;2022-07-22T00:44:08;14.43;;;2.60;;
22949;SDS011;11641;51.018;4.474;2022-07-22T00:46:34;14.07;;;3.10;;
22949;SDS011;11641;51.018;4.474;2022-07-22T00:49:05;11.05;;;2.65;;
22949;SDS011;11641;51.018;4.474;2022-07-22T00:51:32;15.27;;;2.63;;
22949;SDS011;11641;51.018;4.474;2022-07-22T00:53:59;7.88;;;2.25;;
22949;SDS011;11641;51.018;4.474;2022-07-22T00:56:25;7.95;;;2.45;;
22949;SDS011;11641;51.018;4.474;2022-07-22T00:58:52;13.52;;;3.55;;
22949;SDS011;11641;51.018;4.474;2022-07-22T01:01:19;10.73;;;2.55;;
22949;SDS011;11641;51.018;4.474;2022-07-22T01:03:44;10.07;;;3.10;;
22949;SDS011;11641;51.018;4.474;2022-07-22T01:06:10;11.68;;;3.10;;
22949;SDS011;11641;51.018;4.474;2022-07-22T01:08:36;7.32;;;2.65;;
22949;SDS011;11641;51.018;4.474;2022-07-22T01:11:07;15.70;;;2.83;;
22949;SDS011;11641;51.018;4.474;2022-07-22T01:13:33;11.02;;;3.45;;
22949;SDS011;11641;51.018;4.474;2022-07-22T01:16:02;15.05;;;3.17;;
22949;SDS011;11641;51.018;4.474;2022-07-22T01:18:31;16.98;;;2.95;;
22949;SDS011;11641;51.018;4.474;2022-07-22T01:20:57;15.05;;;3.08;;
22949;SDS011;11641;51.018;4.474;2022-07-22T01:23:23;12.40;;;3.15;;
22949;SDS011;11641;51.018;4.474;2022-07-22T01:25:52;12.55;;;2.83;;
22949;SDS011;11641;51.018;4.474;2022-07-22T01:28:18;14.25;;;3.17;;
22949;SDS011;11641;51.018;4.474;2022-07-22T01:30:44;12.68;;;2.95;;
22949;SDS011;11641;51.018;4.474;2022-07-22T01:33:10;10.50;;;2.85;;
22949;SDS011;11641;51.018;4.474;2022-07-22T01:35:36;11.55;;;2.80;;
22949;SDS011;11641;51.018;4.474;2022-07-22T01:38:05;11.32;;;2.85;;
22949;SDS011;11641;51.018;4.474;2022-07-22T01:40:31;15.35;;;3.40;;
22949;SDS011;11641;51.018;4.474;2022-07-22T01:42:59;14.05;;;3.45;;
22949;SDS011;11641;51.018;4.474;2022-07-22T01:45:26;15.80;;;3.20;;
22949;SDS011;11641;51.018;4.474;2022-07-22T01:47:51;15.15;;;3.58;;
22949;SDS011;11641;51.018;4.474;2022-07-22T01:50:20;14.02;;;3.05;;
22949;SDS011;11641;51.018;4.474;2022-07-22T01:52:48;11.75;;;3.30;;
22949;SDS011;11641;51.018;4.474;2022-07-22T01:55:14;14.25;;;3.40;;
22949;SDS011;11641;51.018;4.474;2022-07-22T01:57:42;12.65;;;3.20;;
22949;SDS011;11641;51.018;4.474;2022-07-22T02:00:13;15.23;;;3.60;;
22949;SDS011;11641;51.018;4.474;2022-07-22T02:02:42;19.33;;;4.32;;
22949;SDS011;11641;51.018;4.474;2022-07-22T02:05:08;15.30;;;3.90;;
22949;SDS011;11641;51.018;4.474;2022-07-22T02:07:36;14.73;;;3.50;;
22949;SDS011;11641;51.018;4.474;2022-07-22T02:10:05;11.20;;;3.35;;
22949;SDS011;11641;51.018;4.474;2022-07-22T02:12:31;13.00;;;3.13;;
22949;SDS011;11641;51.018;4.474;2022-07-22T02:14:59;15.18;;;3.50;;
22949;SDS011;11641;51.018;4.474;2022-07-22T02:17:27;15.68;;;4.15;;
22949;SDS011;11641;51.018;4.474;2022-07-22T02:19:53;15.30;;;3.10;;
22949;SDS011;11641;51.018;4.474;2022-07-22T02:22:19;11.75;;;2.97;;
22949;SDS011;11641;51.018;4.474;2022-07-22T02:24:44;12.77;;;3.20;;
22949;SDS011;11641;51.018;4.474;2022-07-22T02:27:10;12.02;;;3.53;;
22949;SDS011;11641;51.018;4.474;2022-07-22T02:29:36;11.35;;;3.17;;
22949;SDS011;11641;51.018;4.474;2022-07-22T02:32:04;11.27;;;2.97;;
22949;SDS011;11641;51.018;4.474;2022-07-22T02:34:29;12.73;;;3.10;;
22949;SDS011;11641;51.018;4.474;2022-07-22T02:36:58;10.70;;;3.08;;
22949;SDS011;11641;51.018;4.474;2022-07-22T02:39:24;13.77;;;3.40;;
22949;SDS011;11641;51.018;4.474;2022-07-22T02:41:50;9.73;;;3.65;;
22949;SDS011;11641;51.018;4.474;2022-07-22T02:44:15;11.57;;;2.78;;
22949;SDS011;11641;51.018;4.474;2022-07-22T02:46:44;17.95;;;3.55;;
22949;SDS011;11641;51.018;4.474;2022-07-22T02:49:12;11.93;;;3.97;;
22949;SDS011;11641;51.018;4.474;2022-07-22T02:51:38;14.00;;;3.05;;
22949;SDS011;11641;51.018;4.474;2022-07-22T02:54:04;13.48;;;3.47;;
22949;SDS011;11641;51.018;4.474;2022-07-22T02:56:31;13.23;;;3.10;;
22949;SDS011;11641;51.018;4.474;2022-07-22T02:58:56;14.18;;;3.60;;
22949;SDS011;11641;51.018;4.474;2022-07-22T03:01:24;13.70;;;3.80;;
22949;SDS011;11641;51.018;4.474;2022-07-22T03:03:50;17.23;;;3.63;;
22949;SDS011;11641;51.018;4.474;2022-07-22T03:06:17;13.13;;;3.35;;
22949;SDS011;11641;51.018;4.474;2022-07-22T03:08:45;12.07;;;3.30;;
22949;SDS011;11641;51.018;4.474;2022-07-22T03:11:11;15.10;;;3.58;;
22949;SDS011;11641;51.018;4.474;2022-07-22T03:13:39;15.07;;;3.72;;
22949;SDS011;11641;51.018;4.474;2022-07-22T03:16:05;16.40;;;3.50;;
22949;SDS011;11641;51.018;4.474;2022-07-22T03:18:30;11.00;;;3.45;;
22949;SDS011;11641;51.018;4.474;2022-07-22T03:20:56;12.57;;;3.63;;
22949;SDS011;11641;51.018;4.474;2022-07-22T03:23:21;8.88;;;3.22;;
22949;SDS011;11641;51.018;4.474;2022-07-22T03:25:48;15.98;;;3.60;;
22949;SDS011;11641;51.018;4.474;2022-07-22T03:28:13;14.27;;;3.25;;
22949;SDS011;11641;51.018;4.474;2022-07-22T03:30:42;9.68;;;2.95;;
22949;SDS011;11641;51.018;4.474;2022-07-22T03:33:08;12.07;;;3.92;;
22949;SDS011;11641;51.018;4.474;2022-07-22T03:35:37;13.18;;;4.00;;
22949;SDS011;11641;51.018;4.474;2022-07-22T03:38:05;16.42;;;3.70;;
22949;SDS011;11641;51.018;4.474;2022-07-22T03:40:30;13.70;;;3.83;;
22949;SDS011;11641;51.018;4.474;2022-07-22T03:42:58;12.25;;;3.65;;
22949;SDS011;11641;51.018;4.474;2022-07-22T03:45:26;17.25;;;4.30;;
22949;SDS011;11641;51.018;4.474;2022-07-22T03:47:52;13.50;;;4.10;;
22949;SDS011;11641;51.018;4.474;2022-07-22T03:50:19;12.00;;;3.50;;
22949;SDS011;11641;51.018;4.474;2022-07-22T03:52:45;11.82;;;4.07;;
22949;SDS011;11641;51.018;4.474;2022-07-22T03:55:11;11.43;;;3.78;;
22949;SDS011;11641;51.018;4.474;2022-07-22T03:57:39;15.48;;;3.80;;
22949;SDS011;11641;51.018;4.474;2022-07-22T04:00:05;11.23;;;3.85;;
22949;SDS011;11641;51.018;4.474;2022-07-22T04:02:31;13.43;;;4.28;;
22949;SDS011;11641;51.018;4.474;2022-07-22T04:04:57;12.02;;;4.35;;
22949;SDS011;11641;51.018;4.474;2022-07-22T04:07:22;17.35;;;4.40;;
22949;SDS011;11641;51.018;4.474;2022-07-22T04:09:49;10.43;;;3.90;;
22949;SDS011;11641;51.018;4.474;2022-07-22T04:12:14;15.55;;;4.22;;
22949;SDS011;11641;51.018;4.474;2022-07-22T04:14:40;13.55;;;3.88;;
22949;SDS011;11641;51.018;4.474;2022-07-22T04:17:05;11.38;;;4.53;;
22949;SDS011;11641;51.018;4.474;2022-07-22T04:19:33;13.15;;;4.18;;
22949;SDS011;11641;51.018;4.474;2022-07-22T04:21:59;11.25;;;3.60;;
22949;SDS011;11641;51.018;4.474;2022-07-22T04:24:24;10.95;;;3.90;;
22949;SDS011;11641;51.018;4.474;2022-07-22T04:26:50;18.83;;;4.40;;
22949;SDS011;11641;51.018;4.474;2022-07-22T04:29:23;9.93;;;3.92;;
22949;SDS011;11641;51.018;4.474;2022-07-22T04:31:49;14.57;;;3.67;;
22949;SDS011;11641;51.018;4.474;2022-07-22T04:34:15;8.77;;;3.55;;
22949;SDS011;11641;51.018;4.474;2022-07-22T04:36:40;9.55;;;3.88;;
22949;SDS011;11641;51.018;4.474;2022-07-22T04:39:08;11.77;;;4.05;;
22949;SDS011;11641;51.018;4.474;2022-07-22T04:41:36;8.57;;;4.25;;
22949;SDS011;11641;51.018;4.474;2022-07-22T04:44:01;11.85;;;4.47;;
22949;SDS011;11641;51.018;4.474;2022-07-22T04:46:28;12.32;;;4.28;;
22949;SDS011;11641;51.018;4.474;2022-07-22T04:48:54;12.23;;;4.22;;
22949;SDS011;11641;51.018;4.474;2022-07-22T04:51:23;12.68;;;4.30;;
22949;SDS011;11641;51.018;4.474;2022-07-22T04:53:49;18.30;;;3.88;;
22949;SDS011;11641;51.018;4.474;2022-07-22T04:56:14;9.23;;;3.92;;
22949;SDS011;11641;51.018;4.474;2022-07-22T04:58:41;9.15;;;4.25;;
22949;SDS011;11641;51.018;4.474;2022-07-22T05:01:06;16.92;;;5.15;;
22949;SDS011;11641;51.018;4.474;2022-07-22T05:03:37;13.50;;;4.07;;
22949;SDS011;11641;51.018;4.474;2022-07-22T05:06:04;12.20;;;4.38;;
22949;SDS011;11641;51.018;4.474;2022-07-22T05:08:29;13.60;;;4.85;;
22949;SDS011;11641;51.018;4.474;2022-07-22T05:10:56;17.65;;;4.97;;
22949;SDS011;11641;51.018;4.474;2022-07-22T05:13:22;11.27;;;4.45;;
22949;SDS011;11641;51.018;4.474;2022-07-22T05:15:48;9.38;;;4.25;;
22949;SDS011;11641;51.018;4.474;2022-07-22T05:18:14;13.55;;;4.40;;
22949;SDS011;11641;51.018;4.474;2022-07-22T05:20:42;11.77;;;4.35;;
22949;SDS011;11641;51.018;4.474;2022-07-22T05:23:08;13.80;;;4.75;;
22949;SDS011;11641;51.018;4.474;2022-07-22T05:25:36;12.90;;;4.90;;
22949;SDS011;11641;51.018;4.474;2022-07-22T05:28:02;16.73;;;4.57;;
22949;SDS011;11641;51.018;4.474;2022-07-22T05:30:30;16.42;;;4.80;;
22949;SDS011;11641;51.018;4.474;2022-07-22T05:32:56;17.38;;;4.53;;
22949;SDS011;11641;51.018;4.474;2022-07-22T05:35:22;13.40;;;4.78;;
22949;SDS011;11641;51.018;4.474;2022-07-22T05:37:47;14.00;;;4.57;;
22949;SDS011;11641;51.018;4.474;2022-07-22T05:40:13;13.10;;;4.68;;
22949;SDS011;11641;51.018;4.474;2022-07-22T05:42:39;11.23;;;5.20;;
22949;SDS011;11641;51.018;4.474;2022-07-22T05:45:05;14.35;;;4.75;;
22949;SDS011;11641;51.018;4.474;2022-07-22T05:47:31;14.63;;;4.70;;
22949;SDS011;11641;51.018;4.474;2022-07-22T05:50:02;13.07;;;5.28;;
22949;SDS011;11641;51.018;4.474;2022-07-22T05:52:27;13.50;;;5.30;;
22949;SDS011;11641;51.018;4.474;2022-07-22T05:54:53;13.88;;;5.47;;
22949;SDS011;11641;51.018;4.474;2022-07-22T05:57:19;14.32;;;5.68;;
22949;SDS011;11641;51.018;4.474;2022-07-22T05:59:44;13.88;;;5.40;;
22949;SDS011;11641;51.018;4.474;2022-07-22T06:02:12;17.90;;;5.90;;
22949;SDS011;11641;51.018;4.474;2022-07-22T06:04:40;10.23;;;5.20;;
22949;SDS011;11641;51.018;4.474;2022-07-22T06:07:06;18.48;;;5.95;;
22949;SDS011;11641;51.018;4.474;2022-07-22T06:09:34;19.13;;;6.13;;
22949;SDS011;11641;51.018;4.474;2022-07-22T06:12:02;14.40;;;5.53;;
22949;SDS011;11641;51.018;4.474;2022-07-22T06:14:27;14.38;;;5.82;;
22949;SDS011;11641;51.018;4.474;2022-07-22T06:16:56;22.67;;;6.10;;
22949;SDS011;11641;51.018;4.474;2022-07-22T06:19:22;22.52;;;6.35;;
22949;SDS011;11641;51.018;4.474;2022-07-22T06:21:50;21.42;;;7.40;;
22949;SDS011;11641;51.018;4.474;2022-07-22T06:24:16;11.70;;;5.93;;
22949;SDS011;11641;51.018;4.474;2022-07-22T06:26:42;15.50;;;6.45;;
22949;SDS011;11641;51.018;4.474;2022-07-22T06:29:08;14.02;;;6.78;;
22949;SDS011;11641;51.018;4.474;2022-07-22T06:31:35;16.58;;;8.00;;
22949;SDS011;11641;51.018;4.474;2022-07-22T06:34:01;16.48;;;7.68;;
22949;SDS011;11641;51.018;4.474;2022-07-22T06:36:30;21.80;;;8.55;;
22949;SDS011;11641;51.018;4.474;2022-07-22T06:38:57;25.05;;;9.10;;
22949;SDS011;11641;51.018;4.474;2022-07-22T06:41:25;17.42;;;8.15;;
22949;SDS011;11641;51.018;4.474;2022-07-22T06:43:53;17.45;;;7.93;;
22949;SDS011;11641;51.018;4.474;2022-07-22T06:46:19;16.20;;;7.30;;
22949;SDS011;11641;51.018;4.474;2022-07-22T06:48:45;15.48;;;6.88;;
22949;SDS011;11641;51.018;4.474;2022-07-22T06:51:10;14.63;;;6.18;;
22949;SDS011;11641;51.018;4.474;2022-07-22T06:53:36;14.48;;;6.15;;
22949;SDS011;11641;51.018;4.474;2022-07-22T06:56:04;13.35;;;5.53;;
22949;SDS011;11641;51.018;4.474;2022-07-22T06:58:30;12.18;;;4.97;;
22949;SDS011;11641;51.018;4.474;2022-07-22T07:00:56;14.35;;;5.75;;
22949;SDS011;11641;51.018;4.474;2022-07-22T07:03:21;10.70;;;5.00;;
22949;SDS011;11641;51.018;4.474;2022-07-22T07:05:50;9.93;;;5.25;;
22949;SDS011;11641;51.018;4.474;2022-07-22T07:08:16;10.25;;;4.82;;
22949;SDS011;11641;51.018;4.474;2022-07-22T07:10:45;11.13;;;4.22;;
22949;SDS011;11641;51.018;4.474;2022-07-22T07:13:11;19.85;;;4.38;;
22949;SDS011;11641;51.018;4.474;2022-07-22T07:15:39;11.90;;;3.67;;
22949;SDS011;11641;51.018;4.474;2022-07-22T07:18:09;9.63;;;3.25;;
22949;SDS011;11641;51.018;4.474;2022-07-22T07:20:34;6.45;;;3.47;;
22949;SDS011;11641;51.018;4.474;2022-07-22T07:23:00;5.95;;;3.25;;
22949;SDS011;11641;51.018;4.474;2022-07-22T07:25:27;9.05;;;3.50;;
22949;SDS011;11641;51.018;4.474;2022-07-22T07:27:55;7.95;;;2.80;;
22949;SDS011;11641;51.018;4.474;2022-07-22T07:30:23;8.15;;;3.38;;
22949;SDS011;11641;51.018;4.474;2022-07-22T07:32:56;9.35;;;3.22;;
22949;SDS011;11641;51.018;4.474;2022-07-22T07:35:25;5.65;;;3.22;;
22949;SDS011;11641;51.018;4.474;2022-07-22T07:37:51;6.93;;;3.08;;
22949;SDS011;11641;51.018;4.474;2022-07-22T07:40:18;7.45;;;3.83;;
22949;SDS011;11641;51.018;4.474;2022-07-22T07:42:43;8.95;;;3.58;;
22949;SDS011;11641;51.018;4.474;2022-07-22T07:45:09;9.40;;;3.22;;
22949;SDS011;11641;51.018;4.474;2022-07-22T07:47:35;5.93;;;2.63;;
22949;SDS011;11641;51.018;4.474;2022-07-22T07:50:02;10.57;;;2.90;;
22949;SDS011;11641;51.018;4.474;2022-07-22T07:52:38;6.55;;;2.80;;
22949;SDS011;11641;51.018;4.474;2022-07-22T07:57:36;8.10;;;2.80;;
22949;SDS011;11641;51.018;4.474;2022-07-22T08:00:03;11.55;;;2.72;;
22949;SDS011;11641;51.018;4.474;2022-07-22T08:02:30;8.00;;;2.25;;
22949;SDS011;11641;51.018;4.474;2022-07-22T08:04:56;11.80;;;2.63;;
22949;SDS011;11641;51.018;4.474;2022-07-22T08:07:22;8.63;;;2.42;;
22949;SDS011;11641;51.018;4.474;2022-07-22T08:09:50;5.65;;;2.45;;
22949;SDS011;11641;51.018;4.474;2022-07-22T08:12:16;8.90;;;2.40;;
22949;SDS011;11641;51.018;4.474;2022-07-22T08:14:43;6.20;;;2.00;;
22949;SDS011;11641;51.018;4.474;2022-07-22T08:17:10;5.88;;;2.33;;
22949;SDS011;11641;51.018;4.474;2022-07-22T08:19:39;8.73;;;2.00;;
22949;SDS011;11641;51.018;4.474;2022-07-22T08:22:04;7.85;;;2.08;;
22949;SDS011;11641;51.018;4.474;2022-07-22T08:24:30;5.55;;;2.13;;
22949;SDS011;11641;51.018;4.474;2022-07-22T08:26:56;7.18;;;2.53;;
22949;SDS011;11641;51.018;4.474;2022-07-22T08:29:22;10.88;;;2.38;;
22949;SDS011;11641;51.018;4.474;2022-07-22T08:31:50;8.60;;;2.22;;
22949;SDS011;11641;51.018;4.474;2022-07-22T08:34:20;7.75;;;2.10;;
22949;SDS011;11641;51.018;4.474;2022-07-22T08:36:47;6.38;;;1.95;;
22949;SDS011;11641;51.018;4.474;2022-07-22T08:39:13;8.93;;;2.33;;
22949;SDS011;11641;51.018;4.474;2022-07-22T08:41:41;5.38;;;1.90;;
22949;SDS011;11641;51.018;4.474;2022-07-22T08:44:09;5.35;;;1.95;;
22949;SDS011;11641;51.018;4.474;2022-07-22T08:46:40;4.50;;;1.98;;
22949;SDS011;11641;51.018;4.474;2022-07-22T08:49:12;6.18;;;1.92;;
22949;SDS011;11641;51.018;4.474;2022-07-22T08:51:41;5.78;;;1.65;;
22949;SDS011;11641;51.018;4.474;2022-07-22T08:54:09;8.35;;;2.10;;
22949;SDS011;11641;51.018;4.474;2022-07-22T08:56:35;10.70;;;2.17;;
22949;SDS011;11641;51.018;4.474;2022-07-22T08:59:03;5.43;;;2.67;;
22949;SDS011;11641;51.018;4.474;2022-07-22T09:01:29;7.25;;;2.15;;
22949;SDS011;11641;51.018;4.474;2022-07-22T09:03:55;6.70;;;2.33;;
22949;SDS011;11641;51.018;4.474;2022-07-22T09:06:26;5.57;;;1.88;;
22949;SDS011;11641;51.018;4.474;2022-07-22T09:09:02;7.10;;;1.98;;
22949;SDS011;11641;51.018;4.474;2022-07-22T09:11:31;5.23;;;2.00;;
22949;SDS011;11641;51.018;4.474;2022-07-22T09:13:58;6.65;;;1.83;;
22949;SDS011;11641;51.018;4.474;2022-07-22T09:16:41;10.63;;;1.85;;
22949;SDS011;11641;51.018;4.474;2022-07-22T09:19:09;3.55;;;1.83;;
22949;SDS011;11641;51.018;4.474;2022-07-22T09:21:35;5.22;;;2.10;;
22949;SDS011;11641;51.018;4.474;2022-07-22T09:24:04;6.53;;;2.00;;
22949;SDS011;11641;51.018;4.474;2022-07-22T09:26:31;7.55;;;2.35;;
22949;SDS011;11641;51.018;4.474;2022-07-22T09:28:59;6.88;;;2.20;;
22949;SDS011;11641;51.018;4.474;2022-07-22T09:31:30;5.80;;;1.80;;
22949;SDS011;11641;51.018;4.474;2022-07-22T09:34:01;5.88;;;2.40;;
22949;SDS011;11641;51.018;4.474;2022-07-22T09:36:28;6.05;;;2.10;;
22949;SDS011;11641;51.018;4.474;2022-07-22T09:38:57;6.65;;;2.17;;
22949;SDS011;11641;51.018;4.474;2022-07-22T09:41:24;7.60;;;2.42;;
22949;SDS011;11641;51.018;4.474;2022-07-22T09:43:50;6.35;;;2.33;;
22949;SDS011;11641;51.018;4.474;2022-07-22T09:46:18;6.00;;;2.03;;
22949;SDS011;11641;51.018;4.474;2022-07-22T09:49:02;4.80;;;2.30;;
22949;SDS011;11641;51.018;4.474;2022-07-22T09:51:28;7.93;;;1.88;;
22949;SDS011;11641;51.018;4.474;2022-07-22T09:53:55;6.43;;;2.33;;
22949;SDS011;11641;51.018;4.474;2022-07-22T09:56:22;5.03;;;2.30;;
22949;SDS011;11641;51.018;4.474;2022-07-22T09:58:55;6.72;;;2.58;;
22949;SDS011;11641;51.018;4.474;2022-07-22T10:01:21;4.88;;;2.25;;
22949;SDS011;11641;51.018;4.474;2022-07-22T10:03:47;5.45;;;2.30;;
22949;SDS011;11641;51.018;4.474;2022-07-22T10:06:18;5.60;;;2.22;;
22949;SDS011;11641;51.018;4.474;2022-07-22T10:08:43;9.07;;;3.28;;
22949;SDS011;11641;51.018;4.474;2022-07-22T10:11:09;9.23;;;2.30;;
22949;SDS011;11641;51.018;4.474;2022-07-22T10:13:36;5.82;;;2.10;;
22949;SDS011;11641;51.018;4.474;2022-07-22T10:16:06;6.43;;;2.30;;
22949;SDS011;11641;51.018;4.474;2022-07-22T10:18:34;5.38;;;2.17;;
22949;SDS011;11641;51.018;4.474;2022-07-22T10:21:02;6.32;;;2.25;;
22949;SDS011;11641;51.018;4.474;2022-07-22T10:23:29;7.20;;;2.58;;
22949;SDS011;11641;51.018;4.474;2022-07-22T10:25:56;7.95;;;2.80;;
22949;SDS011;11641;51.018;4.474;2022-07-22T10:28:30;7.07;;;2.75;;
22949;SDS011;11641;51.018;4.474;2022-07-22T10:33:43;7.90;;;2.70;;
22949;SDS011;11641;51.018;4.474;2022-07-22T10:36:14;4.68;;;2.78;;
22949;SDS011;11641;51.018;4.474;2022-07-22T10:39:06;5.35;;;2.55;;
22949;SDS011;11641;51.018;4.474;2022-07-22T10:41:37;5.53;;;2.88;;
22949;SDS011;11641;51.018;4.474;2022-07-22T10:44:05;8.13;;;3.05;;
22949;SDS011;11641;51.018;4.474;2022-07-22T10:46:53;9.52;;;2.95;;
22949;SDS011;11641;51.018;4.474;2022-07-22T10:49:21;8.60;;;2.85;;
22949;SDS011;11641;51.018;4.474;2022-07-22T10:54:33;8.10;;;2.83;;
22949;SDS011;11641;51.018;4.474;2022-07-22T10:57:02;6.05;;;2.90;;
22949;SDS011;11641;51.018;4.474;2022-07-22T10:59:29;6.07;;;2.80;;
22949;SDS011;11641;51.018;4.474;2022-07-22T11:01:55;6.10;;;2.60;;
22949;SDS011;11641;51.018;4.474;2022-07-22T11:04:24;7.80;;;2.88;;
22949;SDS011;11641;51.018;4.474;2022-07-22T11:06:54;6.70;;;2.60;;
22949;SDS011;11641;51.018;4.474;2022-07-22T11:09:22;6.30;;;2.83;;
22949;SDS011;11641;51.018;4.474;2022-07-22T11:11:56;7.07;;;2.65;;
22949;SDS011;11641;51.018;4.474;2022-07-22T11:14:28;6.68;;;2.60;;
22949;SDS011;11641;51.018;4.474;2022-07-22T11:16:59;6.30;;;2.58;;
22949;SDS011;11641;51.018;4.474;2022-07-22T11:19:35;9.00;;;2.58;;
22949;SDS011;11641;51.018;4.474;2022-07-22T11:22:09;7.18;;;2.95;;
22949;SDS011;11641;51.018;4.474;2022-07-22T11:24:36;7.30;;;2.72;;
22949;SDS011;11641;51.018;4.474;2022-07-22T11:27:08;5.65;;;2.95;;
22949;SDS011;11641;51.018;4.474;2022-07-22T11:29:39;7.40;;;2.75;;
22949;SDS011;11641;51.018;4.474;2022-07-22T11:32:08;5.53;;;2.70;;
22949;SDS011;11641;51.018;4.474;2022-07-22T11:34:40;6.65;;;2.78;;
22949;SDS011;11641;51.018;4.474;2022-07-22T11:37:10;9.13;;;3.35;;
22949;SDS011;11641;51.018;4.474;2022-07-22T11:39:37;6.53;;;2.90;;
22949;SDS011;11641;51.018;4.474;2022-07-22T11:42:04;6.57;;;3.03;;
22949;SDS011;11641;51.018;4.474;2022-07-22T11:44:31;6.03;;;2.55;;
22949;SDS011;11641;51.018;4.474;2022-07-22T11:47:00;5.75;;;2.97;;
22949;SDS011;11641;51.018;4.474;2022-07-22T11:49:28;6.47;;;3.05;;
22949;SDS011;11641;51.018;4.474;2022-07-22T11:52:07;6.95;;;2.90;;
22949;SDS011;11641;51.018;4.474;2022-07-22T11:54:37;4.15;;;2.92;;
22949;SDS011;11641;51.018;4.474;2022-07-22T11:57:05;8.65;;;3.15;;
22949;SDS011;11641;51.018;4.474;2022-07-22T11:59:32;5.18;;;2.60;;
22949;SDS011;11641;51.018;4.474;2022-07-22T12:01:59;5.57;;;2.97;;
22949;SDS011;11641;51.018;4.474;2022-07-22T12:04:25;8.20;;;3.30;;
22949;SDS011;11641;51.018;4.474;2022-07-22T12:06:52;7.38;;;3.00;;
22949;SDS011;11641;51.018;4.474;2022-07-22T12:09:36;8.75;;;3.15;;
22949;SDS011;11641;51.018;4.474;2022-07-22T12:12:06;6.43;;;3.33;;
22949;SDS011;11641;51.018;4.474;2022-07-22T12:14:33;10.38;;;3.35;;
22949;SDS011;11641;51.018;4.474;2022-07-22T12:17:04;7.07;;;3.78;;
22949;SDS011;11641;51.018;4.474;2022-07-22T12:19:33;9.57;;;3.38;;
22949;SDS011;11641;51.018;4.474;2022-07-22T12:22:00;6.28;;;3.75;;
22949;SDS011;11641;51.018;4.474;2022-07-22T12:24:57;7.00;;;3.22;;
22949;SDS011;11641;51.018;4.474;2022-07-22T12:27:27;6.93;;;3.50;;
22949;SDS011;11641;51.018;4.474;2022-07-22T12:29:54;9.32;;;3.65;;
22949;SDS011;11641;51.018;4.474;2022-07-22T12:40:09;5.18;;;3.10;;
22949;SDS011;11641;51.018;4.474;2022-07-22T12:42:41;6.90;;;3.47;;
22949;SDS011;11641;51.018;4.474;2022-07-22T12:45:10;5.75;;;3.50;;
22949;SDS011;11641;51.018;4.474;2022-07-22T12:47:40;8.40;;;3.33;;
22949;SDS011;11641;51.018;4.474;2022-07-22T12:55:30;6.82;;;3.35;;
22949;SDS011;11641;51.018;4.474;2022-07-22T12:58:00;5.38;;;3.13;;
22949;SDS011;11641;51.018;4.474;2022-07-22T13:00:28;9.95;;;3.53;;
22949;SDS011;11641;51.018;4.474;2022-07-22T13:02:58;7.60;;;3.90;;
22949;SDS011;11641;51.018;4.474;2022-07-22T13:05:24;7.35;;;3.67;;
22949;SDS011;11641;51.018;4.474;2022-07-22T13:07:51;12.25;;;3.63;;
22949;SDS011;11641;51.018;4.474;2022-07-22T13:10:18;5.05;;;2.90;;
22949;SDS011;11641;51.018;4.474;2022-07-22T13:12:45;7.97;;;3.60;;
22949;SDS011;11641;51.018;4.474;2022-07-22T13:15:11;8.75;;;3.67;;
22949;SDS011;11641;51.018;4.474;2022-07-22T13:17:38;7.68;;;3.75;;
22949;SDS011;11641;51.018;4.474;2022-07-22T13:20:05;6.68;;;3.40;;
22949;SDS011;11641;51.018;4.474;2022-07-22T13:22:34;6.65;;;3.00;;
22949;SDS011;11641;51.018;4.474;2022-07-22T13:25:00;7.75;;;3.33;;
22949;SDS011;11641;51.018;4.474;2022-07-22T13:27:26;7.60;;;3.55;;
22949;SDS011;11641;51.018;4.474;2022-07-22T13:29:52;10.00;;;3.67;;
22949;SDS011;11641;51.018;4.474;2022-07-22T13:32:19;7.00;;;3.78;;
22949;SDS011;11641;51.018;4.474;2022-07-22T13:34:45;7.97;;;4.10;;
22949;SDS011;11641;51.018;4.474;2022-07-22T13:37:13;7.10;;;3.47;;
22949;SDS011;11641;51.018;4.474;2022-07-22T13:39:39;5.72;;;3.10;;
22949;SDS011;11641;51.018;4.474;2022-07-22T13:42:11;6.72;;;3.78;;
22949;SDS011;11641;51.018;4.474;2022-07-22T13:44:42;9.77;;;3.50;;
22949;SDS011;11641;51.018;4.474;2022-07-22T13:47:08;7.88;;;3.88;;
22949;SDS011;11641;51.018;4.474;2022-07-22T13:49:40;5.32;;;3.53;;
22949;SDS011;11641;51.018;4.474;2022-07-22T13:52:06;6.30;;;3.97;;
22949;SDS011;11641;51.018;4.474;2022-07-22T13:54:33;7.40;;;3.30;;
22949;SDS011;11641;51.018;4.474;2022-07-22T13:57:00;10.13;;;3.33;;
22949;SDS011;11641;51.018;4.474;2022-07-22T13:59:26;6.65;;;3.80;;
22949;SDS011;11641;51.018;4.474;2022-07-22T14:01:53;6.35;;;3.70;;
22949;SDS011;11641;51.018;4.474;2022-07-22T14:04:23;5.13;;;3.90;;
22949;SDS011;11641;51.018;4.474;2022-07-22T14:06:49;6.82;;;3.40;;
22949;SDS011;11641;51.018;4.474;2022-07-22T14:09:16;5.57;;;3.63;;
22949;SDS011;11641;51.018;4.474;2022-07-22T14:11:42;6.45;;;3.97;;
22949;SDS011;11641;51.018;4.474;2022-07-22T14:14:08;8.55;;;3.40;;
22949;SDS011;11641;51.018;4.474;2022-07-22T14:16:36;7.30;;;3.22;;
22949;SDS011;11641;51.018;4.474;2022-07-22T14:19:12;9.90;;;3.55;;
22949;SDS011;11641;51.018;4.474;2022-07-22T14:21:45;7.38;;;3.45;;
22949;SDS011;11641;51.018;4.474;2022-07-22T14:24:11;7.40;;;3.72;;
22949;SDS011;11641;51.018;4.474;2022-07-22T14:26:37;7.10;;;3.70;;
22949;SDS011;11641;51.018;4.474;2022-07-22T14:29:06;5.65;;;3.65;;
22949;SDS011;11641;51.018;4.474;2022-07-22T14:31:36;6.13;;;3.95;;
22949;SDS011;11641;51.018;4.474;2022-07-22T14:34:02;4.40;;;3.25;;
22949;SDS011;11641;51.018;4.474;2022-07-22T14:36:27;6.25;;;3.78;;
22949;SDS011;11641;51.018;4.474;2022-07-22T14:38:56;7.95;;;4.03;;
22949;SDS011;11641;51.018;4.474;2022-07-22T14:41:24;8.77;;;3.72;;
22949;SDS011;11641;51.018;4.474;2022-07-22T14:43:52;8.77;;;4.03;;
22949;SDS011;11641;51.018;4.474;2022-07-22T14:46:18;7.32;;;4.05;;
22949;SDS011;11641;51.018;4.474;2022-07-22T14:48:43;6.63;;;3.90;;
22949;SDS011;11641;51.018;4.474;2022-07-22T14:51:11;7.70;;;4.45;;
22949;SDS011;11641;51.018;4.474;2022-07-22T14:53:37;9.43;;;4.03;;
22949;SDS011;11641;51.018;4.474;2022-07-22T14:56:05;13.77;;;4.80;;
22949;SDS011;11641;51.018;4.474;2022-07-22T14:58:31;8.02;;;4.00;;
22949;SDS011;11641;51.018;4.474;2022-07-22T15:00:56;9.18;;;4.25;;
22949;SDS011;11641;51.018;4.474;2022-07-22T15:03:22;7.10;;;4.20;;